createdAt,value
2018-06-21T00:00:27.276Z,24.80
2018-06-21T00:02:31.174Z,24.70
2018-06-21T00:04:35.700Z,24.70
2018-06-21T00:06:41.874Z,24.70
2018-06-21T00:08:46.706Z,24.60
2018-06-21T00:10:51.223Z,24.50
2018-06-21T00:12:56.975Z,24.50
2018-06-21T00:15:00.914Z,24.40
2018-06-21T00:17:04.769Z,24.40
2018-06-21T00:19:09.018Z,24.40
2018-06-21T00:21:12.871Z,24.30
2018-06-21T00:23:17.414Z,24.30
2018-06-21T00:25:21.753Z,24.20
2018-06-21T00:27:25.768Z,24.10
2018-06-21T00:29:29.714Z,24.10
2018-06-21T00:31:34.053Z,24.00
2018-06-21T00:33:38.657Z,23.90
2018-06-21T00:35:43.489Z,23.80
2018-06-21T00:37:49.459Z,23.70
2018-06-21T00:39:53.577Z,23.70
2018-06-21T00:41:57.546Z,23.70
2018-06-21T00:44:01.702Z,23.70
2018-06-21T00:46:05.725Z,23.60
2018-06-21T00:48:10.533Z,23.60
2018-06-21T00:50:14.888Z,23.60
2018-06-21T00:52:18.811Z,23.60
2018-06-21T00:54:22.829Z,23.50
2018-06-21T00:56:27.559Z,23.50
2018-06-21T00:58:32.252Z,23.50
2018-06-21T01:00:36.265Z,23.40
2018-06-21T01:02:41.496Z,23.40
2018-06-21T01:04:45.419Z,23.30
2018-06-21T01:06:49.322Z,23.30
2018-06-21T01:08:53.179Z,23.30
2018-06-21T01:10:57.784Z,23.20
2018-06-21T01:13:01.705Z,23.20
2018-06-21T01:15:07.226Z,23.10
2018-06-21T01:17:13.498Z,22.80
2018-06-21T01:19:18.836Z,22.70
2018-06-21T01:21:29.306Z,22.30
2018-06-21T01:23:34.655Z,22.10
2018-06-21T01:25:40.381Z,22.20
2018-06-21T01:27:46.427Z,22.40
2018-06-21T01:29:51.485Z,22.60
2018-06-21T01:31:57.775Z,22.40
2018-06-21T01:34:03.504Z,22.20
2018-06-21T01:36:09.200Z,22.10
2018-06-21T01:38:14.042Z,22.10
2018-06-21T01:40:19.623Z,22.10
2018-06-21T01:42:25.024Z,21.90
2018-06-21T01:44:31.769Z,21.90
2018-06-21T01:46:38.162Z,22.10
2018-06-21T01:48:49.382Z,22.30
2018-06-21T01:50:57.588Z,22.30
2018-06-21T01:53:03.913Z,22.40
2018-06-21T01:55:09.145Z,22.50
2018-06-21T01:59:21.962Z,22.30
2018-06-21T02:03:33.299Z,22.20
2018-06-21T02:05:40.704Z,22.20
2018-06-21T02:07:46.735Z,22.20
2018-06-21T02:09:53.068Z,22.20
2018-06-21T02:12:00.602Z,22.20
2018-06-21T02:14:07.225Z,22.10
2018-06-21T02:16:13.508Z,22.10
2018-06-21T02:18:19.001Z,22.20
2018-06-21T02:20:24.271Z,22.20
2018-06-21T02:22:29.499Z,22.20
2018-06-21T02:24:36.124Z,22.20
2018-06-21T02:26:41.098Z,22.20
2018-06-21T02:28:46.693Z,22.30
2018-06-21T02:30:51.417Z,22.30
2018-06-21T02:32:58.547Z,22.10
2018-06-21T02:35:04.773Z,22.10
2018-06-21T02:37:11.339Z,22.20
2018-06-21T02:39:16.334Z,22.20
2018-06-21T02:41:21.489Z,22.10
2018-06-21T02:43:28.470Z,22.10
2018-06-21T02:45:37.100Z,22.20
2018-06-21T02:47:45.152Z,22.20
2018-06-21T02:49:54.254Z,22.20
2018-06-21T02:52:00.694Z,22.20
2018-06-21T02:54:06.851Z,22.10
2018-06-21T02:56:13.100Z,22.00
2018-06-21T02:58:19.330Z,22.10
2018-06-21T03:00:25.749Z,22.00
2018-06-21T03:02:31.339Z,22.00
2018-06-21T03:06:41.617Z,22.00
2018-06-21T03:08:46.532Z,21.90
2018-06-21T03:10:52.484Z,21.90
2018-06-21T03:13:00.908Z,22.00
2018-06-21T03:15:13.500Z,22.00
2018-06-21T03:17:21.114Z,22.00
2018-06-21T03:19:29.044Z,22.10
2018-06-21T03:21:36.099Z,22.00
2018-06-21T03:23:47.944Z,22.00
2018-06-21T03:25:53.951Z,22.10
2018-06-21T03:28:00.743Z,21.90
2018-06-21T03:30:07.170Z,21.80
2018-06-21T03:32:12.759Z,21.90
2018-06-21T03:34:22.459Z,21.90
2018-06-21T03:36:28.607Z,21.90
2018-06-21T03:38:33.989Z,21.90
2018-06-21T03:40:45.942Z,21.90
2018-06-21T03:42:52.378Z,22.00
2018-06-21T03:44:56.614Z,21.90
2018-06-21T03:49:05.492Z,22.10
2018-06-21T03:51:09.558Z,22.10
2018-06-21T03:53:13.787Z,22.00
2018-06-21T03:55:17.755Z,22.10
2018-06-21T03:57:21.715Z,22.10
2018-06-21T03:59:25.807Z,22.20
2018-06-21T04:01:29.693Z,22.30
2018-06-21T04:05:37.314Z,22.40
2018-06-21T04:07:41.227Z,22.50
2018-06-21T04:09:45.230Z,22.70
2018-06-21T04:11:55.142Z,22.80
2018-06-21T04:14:01.932Z,22.90
2018-06-21T04:16:05.939Z,22.90
2018-06-21T04:18:11.170Z,23.00
2018-06-21T04:20:15.185Z,23.20
2018-06-21T04:22:20.518Z,23.20
2018-06-21T04:24:24.490Z,23.40
2018-06-21T04:26:29.552Z,23.60
2018-06-21T04:32:40.535Z,23.90
2018-06-21T04:34:45.450Z,24.00
2018-06-21T04:36:51.400Z,23.90
2018-06-21T04:38:55.286Z,24.00
2018-06-21T04:40:59.166Z,24.20
2018-06-21T04:43:05.430Z,24.40
2018-06-21T04:45:09.350Z,24.70
2018-06-21T04:47:13.310Z,24.90
2018-06-21T04:49:18.391Z,25.10
2018-06-21T04:51:22.335Z,25.20
2018-06-21T04:53:27.305Z,25.30
2018-06-21T04:55:32.194Z,25.50
2018-06-21T04:57:36.183Z,25.60
2018-06-21T04:59:40.125Z,25.60
2018-06-21T05:01:44.285Z,25.70
2018-06-21T05:03:48.404Z,25.80
2018-06-21T05:05:53.720Z,25.80
2018-06-21T05:07:58.044Z,25.80
2018-06-21T05:10:02.596Z,25.90
2018-06-21T05:12:08.436Z,26.00
2018-06-21T05:14:13.482Z,26.00
2018-06-21T05:16:17.414Z,26.10
2018-06-21T05:18:22.502Z,26.20
2018-06-21T05:20:27.131Z,26.40
2018-06-21T05:22:30.986Z,26.50
2018-06-21T05:24:34.871Z,26.70
2018-06-21T05:26:39.718Z,26.90
2018-06-21T05:28:43.676Z,27.00
2018-06-21T05:30:47.709Z,27.20
2018-06-21T05:32:51.978Z,27.30
2018-06-21T05:34:55.901Z,27.20
2018-06-21T05:37:00.537Z,27.20
2018-06-21T05:39:07.382Z,27.20
2018-06-21T05:41:11.494Z,27.60
2018-06-21T05:43:16.465Z,27.70
2018-06-21T05:45:21.215Z,27.90
2018-06-21T05:47:25.135Z,28.00
2018-06-21T05:49:29.082Z,28.20
2018-06-21T05:51:39.390Z,28.10
2018-06-21T05:53:43.390Z,27.80
2018-06-21T05:55:47.274Z,27.90
2018-06-21T05:57:51.418Z,27.70
2018-06-21T05:59:56.429Z,27.70
2018-06-21T06:02:00.928Z,27.90
2018-06-21T06:04:06.048Z,27.90
2018-06-21T06:06:10.374Z,28.10
2018-06-21T06:08:16.402Z,28.30
2018-06-21T06:10:21.688Z,28.60
2018-06-21T06:12:26.505Z,28.60
2018-06-21T06:14:30.467Z,28.50
2018-06-21T06:16:34.640Z,28.00
2018-06-21T06:18:38.631Z,28.10
2018-06-21T06:20:44.246Z,28.00
2018-06-21T06:22:48.531Z,28.20
2018-06-21T06:24:53.484Z,28.00
2018-06-21T06:26:57.325Z,27.90
2018-06-21T06:29:03.665Z,27.90
2018-06-21T06:31:10.836Z,28.00
2018-06-21T06:33:16.058Z,27.90
2018-06-21T06:35:19.921Z,28.10
2018-06-21T06:37:24.831Z,28.10
2018-06-21T06:39:30.424Z,28.00
2018-06-21T06:41:34.593Z,27.90
2018-06-21T06:43:40.033Z,27.80
2018-06-21T06:45:43.885Z,27.70
2018-06-21T06:47:48.209Z,27.80
2018-06-21T06:49:54.553Z,28.20
2018-06-21T06:51:58.373Z,28.40
2018-06-21T06:54:03.801Z,28.60
2018-06-21T06:56:08.583Z,28.60
2018-06-21T06:58:13.325Z,28.80
2018-06-21T07:00:27.514Z,28.90
2018-06-21T07:02:32.189Z,29.00
2018-06-21T07:04:37.420Z,29.10
2018-06-21T07:06:41.377Z,29.40
2018-06-21T07:08:48.243Z,29.20
2018-06-21T07:10:52.682Z,29.30
2018-06-21T07:12:57.083Z,29.10
2018-06-21T07:15:04.474Z,29.20
2018-06-21T07:17:09.873Z,29.20
2018-06-21T07:19:14.310Z,29.40
2018-06-21T07:21:18.197Z,29.30
2018-06-21T07:23:22.741Z,29.20
2018-06-21T07:25:26.730Z,29.00
2018-06-21T07:27:30.812Z,29.20
2018-06-21T07:29:45.894Z,29.40
2018-06-21T07:31:53.182Z,29.40
2018-06-21T07:33:58.417Z,29.40
2018-06-21T07:36:02.434Z,29.40
2018-06-21T07:38:09.629Z,29.40
2018-06-21T07:40:14.630Z,29.40
2018-06-21T07:42:20.034Z,29.40
2018-06-21T07:44:27.919Z,29.30
2018-06-21T07:46:38.173Z,29.30
2018-06-21T07:48:42.882Z,29.10
2018-06-21T07:50:46.713Z,29.20
2018-06-21T07:52:50.605Z,29.00
2018-06-21T07:54:57.243Z,28.90
2018-06-21T07:57:03.446Z,28.90
2018-06-21T07:59:07.341Z,29.00
2018-06-21T08:01:11.974Z,28.90
2018-06-21T08:03:16.381Z,28.90
2018-06-21T08:05:20.322Z,28.80
2018-06-21T08:07:25.021Z,28.80
2018-06-21T08:09:33.390Z,28.90
2018-06-21T08:11:38.771Z,29.20
2018-06-21T08:13:48.417Z,29.30
2018-06-21T08:15:52.736Z,29.60
2018-06-21T08:17:57.396Z,30.00
2018-06-21T08:20:03.765Z,29.70
2018-06-21T08:22:09.768Z,29.90
2018-06-21T08:24:15.681Z,30.10
2018-06-21T08:26:19.537Z,30.50
2018-06-21T08:28:26.162Z,30.70
2018-06-21T08:30:30.419Z,30.80
2018-06-21T08:32:36.121Z,30.60
2018-06-21T08:34:41.623Z,30.10
2018-06-21T08:36:46.472Z,29.80
2018-06-21T08:38:52.206Z,29.80
2018-06-21T08:40:58.052Z,29.70
2018-06-21T08:43:04.487Z,29.80
2018-06-21T08:45:08.838Z,30.10
2018-06-21T08:47:14.363Z,30.50
2018-06-21T08:49:18.229Z,30.60
2018-06-21T08:51:22.158Z,30.30
2018-06-21T08:53:27.452Z,30.10
2018-06-21T08:55:31.351Z,30.30
2018-06-21T08:57:36.635Z,30.30
2018-06-21T08:59:41.416Z,30.10
2018-06-21T09:01:45.284Z,30.00
2018-06-21T09:03:53.609Z,30.00
2018-06-21T09:08:01.883Z,29.60
2018-06-21T09:10:05.850Z,29.30
2018-06-21T09:12:10.617Z,29.40
2018-06-21T09:14:17.794Z,29.40
2018-06-21T09:16:21.938Z,29.20
2018-06-21T09:18:31.287Z,29.20
2018-06-21T09:20:35.305Z,29.30
2018-06-21T09:22:39.237Z,29.30
2018-06-21T09:24:44.300Z,29.30
2018-06-21T09:26:48.541Z,29.50
2018-06-21T09:28:52.457Z,29.40
2018-06-21T09:30:56.476Z,29.50
2018-06-21T09:33:00.571Z,29.70
2018-06-21T09:35:04.554Z,30.00
2018-06-21T09:37:09.329Z,29.70
2018-06-21T09:39:19.223Z,29.70
2018-06-21T09:41:28.342Z,29.30
2018-06-21T09:45:52.873Z,27.90
2018-06-21T09:48:14.178Z,27.30
2018-06-21T09:52:35.307Z,26.80
2018-06-21T09:54:45.547Z,26.70
2018-06-21T09:56:50.621Z,26.30
2018-06-21T09:58:57.026Z,25.50
2018-06-21T10:03:13.621Z,24.70
2018-06-21T10:05:18.281Z,24.60
2018-06-21T10:07:22.151Z,24.30
2018-06-21T10:09:29.329Z,24.10
2018-06-21T10:11:33.325Z,24.00
2018-06-21T10:13:38.281Z,24.00
2018-06-21T10:15:43.054Z,24.00
2018-06-21T10:17:47.510Z,23.60
2018-06-21T10:19:54.181Z,23.50
2018-06-21T10:21:58.263Z,23.60
2018-06-21T10:24:07.394Z,23.80
2018-06-21T10:26:18.346Z,23.50
2018-06-21T10:28:24.525Z,23.30
2018-06-21T10:30:28.570Z,23.50
2018-06-21T10:32:33.169Z,23.60
2018-06-21T10:34:38.394Z,23.70
2018-06-21T10:36:42.344Z,24.00
2018-06-21T10:38:47.068Z,24.10
2018-06-21T10:40:51.393Z,24.30
2018-06-21T10:42:55.553Z,24.30
2018-06-21T10:45:00.162Z,24.60
2018-06-21T10:47:05.489Z,24.50
2018-06-21T10:49:11.622Z,24.60
2018-06-21T10:51:16.443Z,24.60
2018-06-21T10:53:20.393Z,24.60
2018-06-21T10:55:31.405Z,24.70
2018-06-21T10:57:36.277Z,24.40
2018-06-21T10:59:42.623Z,24.40
2018-06-21T11:01:50.271Z,24.40
2018-06-21T11:03:55.603Z,24.20
2018-06-21T11:06:01.521Z,24.40
2018-06-21T11:08:09.396Z,24.40
2018-06-21T11:10:15.554Z,24.40
2018-06-21T11:12:20.505Z,24.50
2018-06-21T11:14:25.808Z,24.50
2018-06-21T11:16:29.860Z,24.80
2018-06-21T11:18:41.511Z,25.50
2018-06-21T11:20:46.753Z,26.00
2018-06-21T11:22:51.368Z,26.00
2018-06-21T11:24:56.448Z,26.00
2018-06-21T11:27:01.797Z,26.40
2018-06-21T11:29:07.211Z,26.80
2018-06-21T11:31:16.388Z,27.40
2018-06-21T11:33:23.294Z,27.90
2018-06-21T11:35:31.093Z,28.40
2018-06-21T11:37:39.160Z,28.50
2018-06-21T11:40:01.615Z,28.00
2018-06-21T11:42:07.430Z,27.50
2018-06-21T11:44:15.224Z,27.50
2018-06-21T11:46:24.304Z,27.50
2018-06-21T11:48:29.515Z,27.90
2018-06-21T11:50:35.776Z,28.00
2018-06-21T11:52:43.922Z,28.10
2018-06-21T11:54:51.635Z,28.20
2018-06-21T11:56:59.269Z,28.00
2018-06-21T11:59:05.248Z,27.80
2018-06-21T12:01:18.380Z,27.80
2018-06-21T12:03:30.398Z,27.60
2018-06-21T12:05:36.630Z,27.60
2018-06-21T12:07:43.182Z,27.40
2018-06-21T12:09:51.098Z,27.60
2018-06-21T12:11:55.885Z,27.60
2018-06-21T12:14:07.777Z,27.90
2018-06-21T12:16:14.513Z,27.80
2018-06-21T12:18:21.705Z,27.40
2018-06-21T12:20:26.155Z,27.40
2018-06-21T12:22:30.113Z,27.60
2018-06-21T12:24:34.112Z,27.70
2018-06-21T12:26:38.023Z,28.10
2018-06-21T12:28:44.359Z,28.50
2018-06-21T12:30:49.408Z,28.60
2018-06-21T12:32:55.168Z,28.60
2018-06-21T12:34:59.670Z,28.50
2018-06-21T12:37:05.206Z,28.50
2018-06-21T12:39:14.092Z,28.10
2018-06-21T12:41:19.114Z,28.20
2018-06-21T12:43:24.990Z,28.00
2018-06-21T12:45:29.653Z,28.20
2018-06-21T12:47:34.359Z,28.40
2018-06-21T12:49:41.770Z,29.00
2018-06-21T12:51:46.286Z,29.20
2018-06-21T12:53:51.329Z,29.20
2018-06-21T12:55:55.824Z,29.10
2018-06-21T12:58:04.645Z,28.80
2018-06-21T13:00:09.057Z,28.50
2018-06-21T13:02:14.226Z,28.10
2018-06-21T13:04:23.672Z,27.90
2018-06-21T13:06:28.615Z,27.30
2018-06-21T13:08:45.646Z,27.50
2018-06-21T13:11:02.428Z,27.70
2018-06-21T13:13:20.030Z,27.90
2018-06-21T13:19:36.666Z,28.60
2018-06-21T13:21:41.893Z,29.00
2018-06-21T13:23:48.785Z,29.30
2018-06-21T13:25:53.822Z,29.30
2018-06-21T13:27:59.545Z,29.30
2018-06-21T13:30:07.658Z,29.40
2018-06-21T13:32:13.115Z,29.40
2018-06-21T13:34:18.837Z,29.10
2018-06-21T13:36:27.279Z,29.10
2018-06-21T13:38:38.073Z,29.20
2018-06-21T13:40:44.862Z,29.40
2018-06-21T13:42:49.240Z,29.50
2018-06-21T13:46:59.261Z,29.70
2018-06-21T13:49:04.682Z,29.40
2018-06-21T13:51:11.801Z,29.40
2018-06-21T13:53:17.214Z,29.30
2018-06-21T13:55:23.504Z,29.00
2018-06-21T13:57:29.250Z,28.60
2018-06-21T13:59:37.228Z,28.20
2018-06-21T14:01:48.347Z,28.00
2018-06-21T14:03:54.509Z,27.80
2018-06-21T14:06:00.093Z,27.70
2018-06-21T14:08:04.488Z,27.80
2018-06-21T14:10:10.713Z,28.20
2018-06-21T14:12:17.882Z,28.60
2018-06-21T14:14:27.549Z,28.80
2018-06-21T14:16:34.760Z,28.80
2018-06-21T14:18:39.597Z,29.30
2018-06-21T14:20:50.138Z,29.60
2018-06-21T14:25:01.760Z,29.90
2018-06-21T14:27:09.857Z,29.80
2018-06-21T14:29:14.753Z,29.70
2018-06-21T14:31:22.869Z,29.20
2018-06-21T14:33:28.538Z,29.30
2018-06-21T14:35:32.480Z,29.50
2018-06-21T14:37:37.727Z,29.40
2018-06-21T14:39:44.395Z,29.30
2018-06-21T14:41:48.437Z,29.20
2018-06-21T14:43:52.298Z,29.40
2018-06-21T14:45:57.957Z,29.80
2018-06-21T14:48:02.891Z,30.30
2018-06-21T14:50:12.502Z,30.60
2018-06-21T14:52:17.765Z,30.80
2018-06-21T14:54:22.559Z,30.80
2018-06-21T14:56:30.256Z,30.40
2018-06-21T14:58:34.697Z,30.50
2018-06-21T15:00:40.135Z,30.20
2018-06-21T15:02:45.391Z,30.30
2018-06-21T15:04:50.933Z,30.40
2018-06-21T15:06:55.749Z,30.10
2018-06-21T15:08:59.857Z,30.10
2018-06-21T15:11:04.251Z,30.10
2018-06-21T15:13:08.523Z,29.70
2018-06-21T15:15:27.430Z,28.70
2018-06-21T15:17:31.619Z,28.60
2018-06-21T15:19:37.293Z,28.70
2018-06-21T15:21:42.213Z,29.40
2018-06-21T15:23:47.049Z,29.40
2018-06-21T15:25:53.415Z,29.30
2018-06-21T15:27:59.390Z,29.30
2018-06-21T15:30:06.866Z,29.30
2018-06-21T15:32:13.252Z,29.70
2018-06-21T15:34:18.189Z,30.30
2018-06-21T15:36:24.033Z,29.90
2018-06-21T15:38:34.678Z,29.60
2018-06-21T15:40:39.470Z,29.60
2018-06-21T15:42:44.881Z,29.70
2018-06-21T15:44:50.403Z,30.00
2018-06-21T15:46:56.361Z,29.80
2018-06-21T15:51:05.605Z,29.30
2018-06-21T15:53:10.841Z,29.20
2018-06-21T15:55:16.954Z,28.80
2018-06-21T15:57:25.588Z,28.60
2018-06-21T15:59:30.434Z,28.50
2018-06-21T16:01:40.031Z,28.10
2018-06-21T16:03:44.937Z,28.10
2018-06-21T16:05:51.433Z,28.20
2018-06-21T16:07:55.718Z,28.60
2018-06-21T16:10:01.413Z,28.00
2018-06-21T16:12:06.896Z,27.70
2018-06-21T16:14:14.514Z,27.10
2018-06-21T16:16:21.241Z,27.20
2018-06-21T16:18:26.739Z,27.50
2018-06-21T16:20:31.876Z,27.80
2018-06-21T16:22:36.542Z,28.10
2018-06-21T16:24:42.087Z,28.20
2018-06-21T16:26:51.523Z,28.60
2018-06-21T16:28:58.233Z,28.40
2018-06-21T16:31:02.276Z,28.20
2018-06-21T16:33:07.716Z,28.00
2018-06-21T16:35:11.661Z,28.00
2018-06-21T16:37:16.924Z,27.40
2018-06-21T16:41:28.696Z,27.30
2018-06-21T16:43:32.926Z,27.20
2018-06-21T16:45:37.955Z,27.20
2018-06-21T16:47:43.198Z,27.00
2018-06-21T16:49:47.734Z,26.80
2018-06-21T16:51:54.373Z,26.90
2018-06-21T16:54:08.268Z,27.00
2018-06-21T16:56:16.883Z,26.80
2018-06-21T16:58:25.866Z,26.90
2018-06-21T17:00:35.464Z,26.70
2018-06-21T17:02:39.457Z,26.70
2018-06-21T17:04:45.279Z,26.40
2018-06-21T17:06:50.561Z,26.30
2018-06-21T17:08:54.595Z,25.80
2018-06-21T17:11:00.339Z,25.10
2018-06-21T17:13:04.262Z,25.10
2018-06-21T17:15:14.019Z,25.10
2018-06-21T17:17:19.783Z,25.50
2018-06-21T17:19:23.754Z,25.80
2018-06-21T17:21:28.324Z,26.00
2018-06-21T17:23:34.481Z,25.70
2018-06-21T17:25:38.448Z,25.70
2018-06-21T17:27:43.326Z,25.60
2018-06-21T17:29:49.071Z,25.60
2018-06-21T17:31:53.279Z,25.40
2018-06-21T17:33:57.146Z,25.60
2018-06-21T17:36:04.024Z,25.40
2018-06-21T17:38:08.827Z,25.60
2018-06-21T17:40:12.845Z,26.10
2018-06-21T17:42:18.329Z,26.20
2018-06-21T17:44:35.472Z,26.20
2018-06-21T17:46:41.554Z,26.10
2018-06-21T17:48:45.687Z,25.90
2018-06-21T17:50:49.814Z,25.90
2018-06-21T17:52:53.832Z,25.60
2018-06-21T17:55:02.347Z,25.40
2018-06-21T17:57:06.232Z,25.30
2018-06-21T17:59:10.980Z,24.80
2018-06-21T18:01:16.346Z,24.20
2018-06-21T18:03:20.319Z,24.20
2018-06-21T18:05:24.921Z,24.20
2018-06-21T18:07:37.761Z,24.60
2018-06-21T18:09:41.733Z,24.40
2018-06-21T18:11:46.193Z,23.70
2018-06-21T18:13:52.970Z,23.10
2018-06-21T18:15:59.740Z,22.50
2018-06-21T18:18:05.697Z,21.60
2018-06-21T18:20:09.681Z,21.00
2018-06-21T18:22:15.040Z,20.70
2018-06-21T18:24:20.428Z,20.40
2018-06-21T18:27:31.791Z,20.00
2018-06-21T18:29:36.653Z,19.70
2018-06-21T18:31:47.528Z,19.50
2018-06-21T18:33:51.561Z,19.50
2018-06-21T18:35:57.169Z,19.50
2018-06-21T18:38:02.338Z,19.40
2018-06-21T18:40:06.320Z,19.40
2018-06-21T18:42:10.204Z,19.30
2018-06-21T18:44:16.803Z,19.30
2018-06-21T18:48:25.014Z,19.20
2018-06-21T18:50:29.365Z,19.30
2018-06-21T18:52:33.311Z,19.00
2018-06-21T18:54:37.957Z,18.90
2018-06-21T18:58:47.265Z,19.10
2018-06-21T19:03:07.915Z,19.00
2018-06-21T19:05:14.074Z,19.10
2018-06-21T19:07:27.273Z,18.90
2018-06-21T19:09:38.362Z,18.80
2018-06-21T19:11:48.269Z,18.50
2018-06-21T19:13:52.696Z,18.40
2018-06-21T19:15:57.471Z,18.50
2018-06-21T19:18:24.043Z,18.50
2018-06-21T19:20:31.698Z,18.50
2018-06-21T19:22:37.731Z,18.20
2018-06-21T19:24:42.271Z,18.10
2018-06-21T19:26:48.730Z,18.10
2018-06-21T19:28:55.956Z,18.20
2018-06-21T19:31:01.711Z,17.90
2018-06-21T19:33:15.720Z,17.80
2018-06-21T19:37:27.807Z,17.60
2018-06-21T19:39:32.445Z,17.70
2018-06-21T19:41:44.824Z,17.50
2018-06-21T19:43:57.293Z,17.70
2018-06-21T19:46:02.285Z,17.70
2018-06-21T19:48:11.728Z,17.80
2018-06-21T19:50:20.554Z,17.80
2018-06-21T19:52:25.336Z,17.60
2018-06-21T19:54:30.625Z,17.60
2018-06-21T19:56:36.075Z,17.50
2018-06-21T19:58:42.817Z,17.50
2018-06-21T20:00:48.723Z,17.50
2018-06-21T20:02:58.877Z,17.40
2018-06-21T20:05:05.022Z,17.30
2018-06-21T20:07:10.184Z,17.10
2018-06-21T20:09:16.635Z,17.20
2018-06-21T20:13:44.412Z,17.20
2018-06-21T20:15:54.662Z,17.10
2018-06-21T20:18:02.890Z,17.10
2018-06-21T20:20:13.596Z,17.10
2018-06-21T20:24:23.189Z,16.90
2018-06-21T20:26:33.517Z,16.70
2018-06-21T20:28:44.559Z,16.80
2018-06-21T20:30:51.613Z,16.90
2018-06-21T20:32:57.701Z,16.90
2018-06-21T20:35:03.516Z,16.90
2018-06-21T20:37:17.987Z,16.80
2018-06-21T20:39:27.647Z,16.70
2018-06-21T20:41:33.137Z,16.70
2018-06-21T20:43:42.798Z,16.60
2018-06-21T20:45:49.776Z,16.60
2018-06-21T20:47:55.859Z,16.70
2018-06-21T20:50:02.302Z,16.70
2018-06-21T20:52:15.601Z,16.60
2018-06-21T20:54:22.625Z,16.60
2018-06-21T20:56:28.310Z,16.40
2018-06-21T20:58:34.749Z,16.50
2018-06-21T21:00:38.646Z,16.40
2018-06-21T21:02:47.852Z,16.50
2018-06-21T21:05:24.414Z,16.40
2018-06-21T21:07:31.288Z,16.50
2018-06-21T21:09:37.052Z,16.30
2018-06-21T21:11:43.259Z,16.20
2018-06-21T21:13:50.252Z,16.30
2018-06-21T21:16:01.846Z,16.30
2018-06-21T21:18:08.149Z,16.20
2018-06-21T21:20:14.484Z,16.20
2018-06-21T21:22:25.732Z,16.20
2018-06-21T21:24:30.716Z,16.10
2018-06-21T21:26:35.294Z,16.10
2018-06-21T21:28:42.361Z,16.10
2018-06-21T21:30:47.929Z,16.10
2018-06-21T21:33:07.327Z,16.00
2018-06-21T21:35:15.213Z,16.10
2018-06-21T21:37:27.385Z,16.10
2018-06-21T21:39:31.336Z,16.10
2018-06-21T21:41:37.621Z,16.00
2018-06-21T21:43:42.553Z,16.00
2018-06-21T21:45:48.633Z,16.00
2018-06-21T21:47:54.746Z,16.00
2018-06-21T21:50:01.311Z,16.00
2018-06-21T21:52:10.337Z,16.20
2018-06-21T21:54:15.273Z,16.00
2018-06-21T21:56:20.266Z,15.90
2018-06-21T21:58:24.477Z,15.90
2018-06-21T22:00:59.845Z,15.90
2018-06-21T22:03:07.704Z,15.80
2018-06-21T22:05:17.457Z,15.70
2018-06-21T22:07:24.338Z,15.70
2018-06-21T22:09:29.260Z,15.60
2018-06-21T22:11:38.067Z,15.50
2018-06-21T22:13:43.765Z,15.40
2018-06-21T22:15:48.569Z,15.50
2018-06-21T22:17:53.958Z,15.40
2018-06-21T22:19:59.204Z,15.40
2018-06-21T22:22:04.250Z,15.60
2018-06-21T22:24:08.098Z,15.60
2018-06-21T22:26:17.332Z,15.40
2018-06-21T22:28:25.343Z,15.40
2018-06-21T22:30:30.277Z,15.30
2018-06-21T22:32:36.094Z,15.30
2018-06-21T22:34:41.504Z,15.30
2018-06-21T22:43:47.283Z,15.20
2018-06-21T22:45:56.354Z,15.20
2018-06-21T22:48:03.249Z,15.10
2018-06-21T22:50:08.606Z,15.00
2018-06-21T22:52:19.772Z,15.00
2018-06-21T22:54:23.787Z,15.00
2018-06-21T22:58:35.684Z,15.00
2018-06-21T23:02:44.251Z,14.90
2018-06-21T23:04:49.700Z,15.00
2018-06-21T23:06:55.243Z,15.10
2018-06-21T23:08:59.874Z,15.10
2018-06-21T23:11:05.110Z,15.10
2018-06-21T23:13:12.727Z,14.90
2018-06-21T23:15:18.222Z,14.80
2018-06-21T23:21:45.349Z,14.70
2018-06-21T23:23:50.710Z,14.70
2018-06-21T23:25:57.124Z,14.50
2018-06-21T23:28:03.382Z,14.50
2018-06-21T23:30:10.785Z,14.40
2018-06-21T23:32:16.679Z,14.40
2018-06-21T23:34:23.084Z,14.40
2018-06-21T23:36:28.334Z,14.30
2018-06-21T23:38:34.024Z,14.30
2018-06-21T23:40:39.928Z,14.40
2018-06-21T23:42:45.170Z,14.30
2018-06-21T23:44:49.718Z,14.30
2018-06-21T23:46:56.151Z,14.40
2018-06-21T23:49:00.387Z,14.20
2018-06-21T23:51:04.619Z,14.30
2018-06-21T23:53:09.200Z,14.30
2018-06-21T23:55:21.778Z,14.30
2018-06-21T23:57:26.654Z,14.30
2018-06-21T23:59:32.380Z,14.30
